Time;durP1;ratioP1;P1;durP2;ratioP2;P2;SDS_P1;SDS_P2;PMS_P1;PMS_P2;Temp;Humidity;BMP_temperature;BMP_pressure;BME280_temperature;BME280_humidity;BME280_pressure;Samples;Min_cycle;Max_cycle;Signal;HPM_P1;HPM_P2
2023/04/17 00:17:18;;;;;;;32.80;20.47;;;8.00;99.90;;;;;;6041967;23;20205;-83
2023/04/17 00:47:35;;;;;;;29.13;19.27;;;8.40;99.90;;;;;;5651805;24;20248;-82
2023/04/17 01:08:06;;;;;;;27.20;18.97;;;8.40;99.90;;;;;;5740641;24;20204;-84
2023/04/17 01:33:19;;;;;;;28.90;20.57;;;8.40;99.90;;;;;;5553383;25;20193;-83
2023/04/17 02:13:22;;;;;;;30.57;20.80;;;8.40;99.90;;;;;;5836460;23;20401;-80
2023/04/17 02:59:41;;;;;;;31.33;20.30;;;7.60;99.90;;;;;;5820450;24;20560;-82
2023/04/17 03:35:14;;;;;;;37.53;24.33;;;7.80;99.90;;;;;;5869185;23;20170;-82
2023/04/17 04:00:18;;;;;;;34.00;22.20;;;7.90;99.90;;;;;;5718202;23;20180;-84
2023/04/17 06:06:02;;;;;;;26.57;18.03;;;9.40;99.90;;;;;;5576863;25;20960;-83
2023/04/17 06:41:28;;;;;;;22.33;17.20;;;10.50;99.90;;;;;;5563294;25;20504;-86
2023/04/17 07:36:57;;;;;;;19.57;14.40;;;11.30;99.90;;;;;;5679337;24;20506;-84
2023/04/17 08:02:36;;;;;;;19.37;14.93;;;11.70;99.90;;;;;;5811328;23;20197;-86
2023/04/17 08:28:02;;;;;;;19.57;14.90;;;11.70;99.90;;;;;;5751970;24;20590;-84
2023/04/17 09:28:18;;;;;;;14.80;12.07;;;12.80;99.90;;;;;;5740555;24;20644;-83
2023/04/17 09:44:08;;;;;;;16.43;11.63;;;13.40;97.10;;;;;;5728602;24;20247;-84
2023/04/17 10:24:43;;;;;;;13.23;10.97;;;13.90;93.60;;;;;;5853582;24;20193;-85
2023/04/17 10:49:49;;;;;;;13.57;10.90;;;14.50;93.00;;;;;;5645312;24;20350;-85
2023/04/17 11:15:33;;;;;;;12.53;9.70;;;15.10;91.00;;;;;;5667191;24;20195;-83
2023/04/17 11:45:57;;;;;;;10.63;8.23;;;14.50;90.50;;;;;;5762267;24;20803;-83
2023/04/17 12:21:33;;;;;;;9.97;7.97;;;14.10;91.10;;;;;;5808328;24;20815;-82
2023/04/17 12:25:52;;;;;;;11.20;7.60;;;14.10;91.00;;;;;;5807234;24;21154;-83
2023/04/17 12:46:53;;;;;;;7.93;6.80;;;14.30;90.10;;;;;;5878484;24;20819;-84
2023/04/17 13:17:21;;;;;;;6.00;4.23;;;14.50;86.00;;;;;;5757136;24;20377;-84
2023/04/17 13:21:50;;;;;;;6.10;5.07;;;14.60;85.20;;;;;;5749380;24;20509;-82
2023/04/17 13:42:26;;;;;;;6.53;4.67;;;14.50;83.50;;;;;;5784909;24;20192;-85
2023/04/17 14:13:01;;;;;;;6.00;4.47;;;14.40;84.30;;;;;;5780637;24;20257;-84
2023/04/17 14:48:37;;;;;;;5.50;4.97;;;15.10;83.70;;;;;;5868112;24;20241;-82
2023/04/17 14:53:00;;;;;;;7.57;6.30;;;15.00;82.60;;;;;;5726740;24;20481;-84
2023/04/17 15:08:51;;;;;;;6.87;6.17;;;13.90;85.50;;;;;;5958434;23;20329;-84
2023/04/17 15:29:15;;;;;;;9.17;5.90;;;13.70;86.50;;;;;;5901781;23;20205;-83
2023/04/17 16:09:33;;;;;;;5.60;4.53;;;13.40;86.60;;;;;;5702968;24;20225;-85
2023/04/17 16:40:10;;;;;;;8.17;5.27;;;13.00;88.80;;;;;;5900930;23;20170;-83
2023/04/17 17:05:24;;;;;;;6.90;4.23;;;12.50;88.40;;;;;;5876478;24;20232;-83
2023/04/17 17:35:18;;;;;;;7.03;5.00;;;11.90;90.70;;;;;;5822953;24;20483;-84
2023/04/17 18:46:23;;;;;;;9.43;6.67;;;11.20;95.10;;;;;;5747058;24;20383;-82
2023/04/17 19:12:16;;;;;;;8.87;5.90;;;11.00;95.40;;;;;;5709497;24;20607;-81
2023/04/17 19:37:38;;;;;;;10.80;6.37;;;10.80;95.90;;;;;;5727373;24;20183;-82
2023/04/17 20:53:41;;;;;;;13.73;9.07;;;10.30;99.90;;;;;;5869231;24;20183;-83
2023/04/17 21:44:17;;;;;;;17.60;11.03;;;9.90;99.90;;;;;;5709613;24;20238;-81
2023/04/17 23:10:27;;;;;;;26.87;15.37;;;8.70;99.90;;;;;;5942060;23;20192;-81
2023/04/17 23:30:49;;;;;;;27.97;16.20;;;8.70;99.90;;;;;;5738762;24;20749;-84
